Time;durP1;ratioP1;P1;durP2;ratioP2;P2;SDS_P1;SDS_P2;PMS_P1;PMS_P2;Temp;Humidity;BMP_temperature;BMP_pressure;BME280_temperature;BME280_humidity;BME280_pressure;Samples;Min_cycle;Max_cycle;Signal;HPM_P1;HPM_P2
2021/11/22 00:00:27;;;;;;;23.08;13.13;;;;;;;4.17;100.00;99346.44;5042714;28;20049;-63
2021/11/22 00:02:53;;;;;;;33.88;13.38;;;;;;;4.26;100.00;99358.50;5044170;28;20552;-62
2021/11/22 00:05:19;;;;;;;25.42;14.00;;;;;;;4.19;100.00;99360.31;5043832;28;20057;-62
2021/11/22 00:07:44;;;;;;;33.30;13.52;;;;;;;4.15;100.00;99361.75;5044557;28;20055;-62
2021/11/22 00:10:10;;;;;;;25.08;13.18;;;;;;;4.13;100.00;99358.47;5044644;28;20041;-62
2021/11/22 00:12:35;;;;;;;28.25;14.00;;;;;;;4.09;100.00;99366.84;5044337;28;20095;-62
2021/11/22 00:15:04;;;;;;;25.90;14.02;;;;;;;4.15;100.00;99365.22;5055871;28;20441;-62
2021/11/22 00:17:31;;;;;;;32.35;14.43;;;;;;;4.17;100.00;99359.69;5024195;28;20049;-62
2021/11/22 00:19:58;;;;;;;26.60;14.18;;;;;;;4.07;100.00;99363.56;5043322;28;20044;-62
2021/11/22 00:22:23;;;;;;;26.35;14.63;;;;;;;4.03;100.00;99367.59;5044180;28;20037;-64
2021/11/22 00:24:49;;;;;;;30.10;15.98;;;;;;;4.03;100.00;99364.13;5044925;28;20379;-63
2021/11/22 00:27:14;;;;;;;28.77;15.77;;;;;;;4.00;100.00;99365.34;5043513;28;20124;-62
2021/11/22 00:29:40;;;;;;;29.98;15.68;;;;;;;4.00;100.00;99373.31;5044694;28;20033;-63
2021/11/22 00:32:05;;;;;;;28.27;15.68;;;;;;;4.02;100.00;99373.09;5042782;28;20121;-63
2021/11/22 00:34:32;;;;;;;33.83;16.90;;;;;;;3.95;100.00;99378.38;5044417;28;20136;-63
2021/11/22 00:36:58;;;;;;;31.52;17.13;;;;;;;3.97;100.00;99376.34;5043881;28;20163;-62
2021/11/22 00:39:23;;;;;;;31.15;15.73;;;;;;;4.01;100.00;99376.78;5044100;28;20047;-62
2021/11/22 00:41:49;;;;;;;28.77;17.00;;;;;;;3.96;100.00;99380.00;5043152;28;20769;-62
2021/11/22 00:44:14;;;;;;;38.10;17.88;;;;;;;3.88;100.00;99383.63;5044561;28;20025;-62
2021/11/22 00:46:40;;;;;;;37.75;17.08;;;;;;;3.97;100.00;99379.00;5042893;28;20025;-63
2021/11/22 00:49:06;;;;;;;33.97;17.67;;;;;;;4.00;100.00;99388.41;5030696;28;20025;-63
2021/11/22 00:51:31;;;;;;;37.38;17.13;;;;;;;4.04;100.00;99400.25;5041659;28;20754;-62
2021/11/22 00:53:57;;;;;;;33.97;16.30;;;;;;;3.96;100.00;99395.09;5044053;28;20029;-63
2021/11/22 00:56:23;;;;;;;31.48;15.38;;;;;;;3.95;100.00;99402.25;5044274;28;20045;-63
2021/11/22 00:58:48;;;;;;;30.58;16.38;;;;;;;3.88;100.00;99406.69;5043912;28;20427;-62
2021/11/22 01:01:14;;;;;;;32.97;16.15;;;;;;;3.87;100.00;99405.06;5042332;28;20049;-62
2021/11/22 01:03:39;;;;;;;33.72;16.40;;;;;;;3.76;100.00;99397.63;5037282;28;20695;-62
2021/11/22 01:06:05;;;;;;;30.70;16.25;;;;;;;3.82;100.00;99403.00;5041965;28;20470;-63
2021/11/22 01:08:30;;;;;;;34.83;16.48;;;;;;;3.73;100.00;99409.44;5043395;28;20052;-62
2021/11/22 01:10:56;;;;;;;33.80;17.55;;;;;;;3.67;100.00;99405.75;5043167;28;20093;-62
2021/11/22 01:13:21;;;;;;;45.50;18.42;;;;;;;3.67;100.00;99405.75;5043666;28;20086;-62
2021/11/22 01:15:47;;;;;;;41.78;17.27;;;;;;;3.62;100.00;99410.81;5043444;28;20069;-62
2021/11/22 01:18:12;;;;;;;32.15;16.70;;;;;;;3.64;100.00;99422.03;5043069;28;20538;-62
2021/11/22 01:20:38;;;;;;;30.45;15.93;;;;;;;3.66;100.00;99425.28;5042189;28;20045;-63
2021/11/22 01:23:05;;;;;;;31.85;16.25;;;;;;;3.71;100.00;99426.56;5044207;28;20025;-63
2021/11/22 01:25:31;;;;;;;36.65;16.67;;;;;;;3.61;100.00;99422.41;5043074;28;20049;-63
2021/11/22 01:27:57;;;;;;;34.67;17.42;;;;;;;3.61;100.00;99424.25;5043930;28;20455;-63
2021/11/22 01:30:22;;;;;;;34.85;15.68;;;;;;;3.55;100.00;99439.09;5042934;28;20297;-63
2021/11/22 01:32:48;;;;;;;39.15;17.52;;;;;;;3.60;100.00;99436.69;5042884;28;20079;-64
2021/11/22 01:35:14;;;;;;;37.70;16.80;;;;;;;3.59;100.00;99444.81;5038319;28;20017;-64
2021/11/22 01:37:39;;;;;;;32.45;17.70;;;;;;;3.58;100.00;99438.69;5043007;28;20021;-62
2021/11/22 01:40:06;;;;;;;32.45;16.35;;;;;;;3.47;100.00;99444.53;5042664;28;20029;-64
2021/11/22 01:42:31;;;;;;;39.88;18.35;;;;;;;3.43;100.00;99452.03;5043394;28;20025;-62
2021/11/22 01:44:57;;;;;;;31.10;15.50;;;;;;;3.45;100.00;99457.16;5043046;28;20083;-64
2021/11/22 01:47:22;;;;;;;39.63;18.67;;;;;;;3.45;100.00;99455.31;5042005;28;20045;-64
2021/11/22 01:49:48;;;;;;;39.08;19.55;;;;;;;3.40;100.00;99462.19;5042606;28;20475;-64
2021/11/22 01:52:13;;;;;;;37.85;18.33;;;;;;;3.47;100.00;99471.03;5040249;28;20514;-64
2021/11/22 01:54:39;;;;;;;40.47;19.48;;;;;;;3.41;100.00;99474.44;5040117;28;20423;-63
2021/11/22 01:57:04;;;;;;;37.70;19.98;;;;;;;3.39;100.00;99471.13;5040331;28;20043;-64
2021/11/22 01:59:30;;;;;;;39.13;19.85;;;;;;;3.50;100.00;99473.28;5042962;28;20103;-63
2021/11/22 02:01:56;;;;;;;37.53;18.35;;;;;;;3.40;100.00;99470.16;5042306;28;20688;-64
2021/11/22 02:04:21;;;;;;;37.95;18.20;;;;;;;3.34;100.00;99473.53;5042891;28;20202;-63
2021/11/22 02:06:49;;;;;;;33.20;16.92;;;;;;;3.41;100.00;99474.44;5041484;28;20110;-63
2021/11/22 02:09:14;;;;;;;34.83;17.90;;;;;;;3.34;100.00;99478.84;5030608;28;20501;-63
2021/11/22 02:11:40;;;;;;;35.88;19.10;;;;;;;3.27;100.00;99478.78;5041336;28;20804;-64
2021/11/22 02:14:05;;;;;;;35.65;17.77;;;;;;;3.32;100.00;99484.34;5042733;28;20090;-64
2021/11/22 02:16:34;;;;;;;35.53;18.88;;;;;;;3.32;100.00;99483.50;5041371;28;20095;-64
2021/11/22 02:19:01;;;;;;;38.10;19.00;;;;;;;3.17;100.00;99484.41;5037856;28;20630;-63
2021/11/22 02:21:27;;;;;;;47.63;20.17;;;;;;;3.19;100.00;99487.66;5039088;28;20295;-63
2021/11/22 02:23:52;;;;;;;42.10;19.13;;;;;;;3.19;100.00;99498.25;5041707;28;20430;-64
2021/11/22 02:26:20;;;;;;;39.55;18.50;;;;;;;3.25;100.00;99491.41;5041751;28;20541;-63
2021/11/22 02:28:45;;;;;;;43.08;20.02;;;;;;;3.21;100.00;99490.13;5040023;28;20052;-63
2021/11/22 02:31:11;;;;;;;42.67;18.63;;;;;;;3.17;100.00;99502.09;5041546;28;20045;-64
2021/11/22 02:33:37;;;;;;;40.85;18.98;;;;;;;3.28;100.00;99506.09;5041875;28;20036;-63
2021/11/22 02:36:03;;;;;;;36.88;19.85;;;;;;;3.19;100.00;99503.53;5042010;28;20041;-63
2021/11/22 02:38:33;;;;;;;37.55;20.25;;;;;;;3.34;100.00;99505.34;5032494;28;20631;-63
2021/11/22 02:40:59;;;;;;;43.97;19.92;;;;;;;3.28;100.00;99511.41;5041947;28;20465;-63
2021/11/22 02:43:26;;;;;;;41.55;19.33;;;;;;;3.26;100.00;99510.75;5042964;28;20021;-63
2021/11/22 02:45:51;;;;;;;36.33;18.27;;;;;;;3.19;100.00;99519.44;5042325;28;20360;-63
2021/11/22 02:48:17;;;;;;;39.33;20.05;;;;;;;3.21;100.00;99517.44;5041978;28;20036;-63
2021/11/22 02:50:42;;;;;;;43.15;20.95;;;;;;;3.28;100.00;99516.69;5038546;28;20057;-63
2021/11/22 02:53:08;;;;;;;40.85;20.90;;;;;;;3.24;100.00;99518.88;5042376;28;20721;-64
2021/11/22 02:55:33;;;;;;;40.45;20.17;;;;;;;3.18;100.00;99523.09;5044764;28;20040;-64
2021/11/22 02:57:59;;;;;;;43.28;19.42;;;;;;;3.11;100.00;99519.56;5045741;28;20685;-63
2021/11/22 03:00:27;;;;;;;41.33;19.20;;;;;;;3.05;100.00;99530.91;5045970;28;20091;-63
2021/11/22 03:02:52;;;;;;;38.75;19.63;;;;;;;3.06;100.00;99521.94;5042547;28;20033;-64
2021/11/22 03:05:18;;;;;;;41.97;19.40;;;;;;;2.93;100.00;99535.03;5044509;28;20048;-63
2021/11/22 03:07:44;;;;;;;35.47;18.13;;;;;;;2.86;100.00;99534.13;5046000;28;20496;-64
2021/11/22 03:10:12;;;;;;;43.78;18.00;;;;;;;2.83;100.00;99531.88;5045771;28;20064;-63
2021/11/22 03:12:37;;;;;;;48.63;18.98;;;;;;;2.77;100.00;99534.25;5013030;28;20152;-63
2021/11/22 03:15:03;;;;;;;41.17;18.27;;;;;;;2.74;100.00;99531.94;5045262;28;20520;-63
2021/11/22 03:17:28;;;;;;;46.78;18.23;;;;;;;2.71;100.00;99526.22;5045601;28;20036;-63
2021/11/22 03:19:55;;;;;;;39.10;17.67;;;;;;;2.66;100.00;99529.41;5046063;28;20082;-63
2021/11/22 03:22:20;;;;;;;40.08;17.42;;;;;;;2.69;100.00;99538.81;5044766;28;20735;-63
2021/11/22 03:24:45;;;;;;;41.67;18.60;;;;;;;2.52;100.00;99538.16;5042164;28;20033;-63
2021/11/22 03:27:11;;;;;;;45.58;17.98;;;;;;;2.47;100.00;99544.03;5043528;28;20064;-63
2021/11/22 03:29:36;;;;;;;38.58;17.95;;;;;;;2.38;100.00;99551.22;5045178;28;20487;-63
2021/11/22 03:32:02;;;;;;;38.78;17.73;;;;;;;2.44;100.00;99554.97;5042569;28;20564;-63
2021/11/22 03:34:29;;;;;;;38.20;17.67;;;;;;;2.34;100.00;99560.50;5044776;28;20357;-63
2021/11/22 03:37:00;;;;;;;47.15;17.90;;;;;;;2.35;100.00;99559.53;5044220;28;20041;-63
2021/11/22 03:39:26;;;;;;;42.80;16.83;;;;;;;2.30;100.00;99564.53;5043043;28;20049;-63
2021/11/22 03:41:52;;;;;;;41.58;17.60;;;;;;;2.38;100.00;99568.91;5043657;28;20050;-63
2021/11/22 03:44:18;;;;;;;43.45;18.92;;;;;;;2.46;100.00;99570.66;5045090;28;20033;-63
2021/11/22 03:46:45;;;;;;;39.42;17.35;;;;;;;2.45;100.00;99572.50;5045447;28;20099;-63
2021/11/22 03:49:11;;;;;;;43.20;18.88;;;;;;;2.41;100.00;99575.66;5045705;28;20501;-63
2021/11/22 03:51:37;;;;;;;48.17;19.70;;;;;;;2.49;100.00;99576.41;5043829;28;20172;-64
2021/11/22 03:54:02;;;;;;;48.28;20.70;;;;;;;2.55;100.00;99580.97;5030705;28;20119;-64
2021/11/22 03:56:28;;;;;;;41.17;18.35;;;;;;;2.66;100.00;99582.34;5036561;28;20183;-63
2021/11/22 03:58:53;;;;;;;44.22;18.77;;;;;;;2.58;100.00;99588.53;5043946;28;20029;-63
2021/11/22 04:01:19;;;;;;;48.03;20.02;;;;;;;2.60;100.00;99583.09;5044652;28;20051;-63
2021/11/22 04:03:44;;;;;;;49.15;18.65;;;;;;;2.69;100.00;99592.56;5044857;28;20063;-63
2021/11/22 04:06:10;;;;;;;50.08;20.20;;;;;;;2.64;100.00;99594.94;5044074;28;20533;-63
2021/11/22 04:08:36;;;;;;;43.25;19.98;;;;;;;2.80;100.00;99601.88;5044523;28;20115;-63
2021/11/22 04:11:02;;;;;;;53.33;20.60;;;;;;;2.76;100.00;99597.94;5044724;28;20053;-62
2021/11/22 04:13:27;;;;;;;48.92;19.95;;;;;;;2.75;100.00;99597.13;5044721;28;20490;-63
2021/11/22 04:15:53;;;;;;;50.45;20.80;;;;;;;2.79;100.00;99601.03;5044866;28;20600;-63
2021/11/22 04:18:18;;;;;;;47.15;20.77;;;;;;;2.76;100.00;99597.94;5045292;28;20040;-63
2021/11/22 04:20:44;;;;;;;50.50;21.88;;;;;;;2.74;100.00;99600.78;5043705;28;20529;-63
2021/11/22 04:23:10;;;;;;;53.85;21.48;;;;;;;2.72;100.00;99613.41;5040753;28;20448;-63
2021/11/22 04:25:36;;;;;;;47.58;22.48;;;;;;;2.77;100.00;99618.13;5044295;28;20185;-63
2021/11/22 04:28:02;;;;;;;49.85;22.17;;;;;;;2.81;100.00;99628.16;5043688;28;20055;-63
2021/11/22 04:30:30;;;;;;;43.40;19.45;;;;;;;2.87;100.00;99631.94;5044093;28;20037;-63
2021/11/22 04:32:57;;;;;;;52.47;22.00;;;;;;;2.93;100.00;99636.47;5043052;28;20033;-63
2021/11/22 04:35:22;;;;;;;55.47;22.75;;;;;;;2.99;100.00;99634.91;5039847;28;20080;-63
2021/11/22 04:37:48;;;;;;;50.97;22.63;;;;;;;2.84;100.00;99636.75;5042836;28;20028;-63
2021/11/22 04:40:15;;;;;;;50.20;22.98;;;;;;;2.97;100.00;99636.91;5043803;28;20072;-63
2021/11/22 04:42:45;;;;;;;53.03;23.17;;;;;;;2.98;100.00;99651.81;5044951;28;20029;-63
2021/11/22 04:45:11;;;;;;;55.33;23.23;;;;;;;2.92;100.00;99649.88;5044602;28;20036;-63
2021/11/22 04:47:36;;;;;;;53.92;24.17;;;;;;;2.95;100.00;99649.53;5042810;28;20395;-63
2021/11/22 04:50:02;;;;;;;57.75;24.45;;;;;;;2.98;100.00;99651.81;5041464;28;20148;-63
2021/11/22 04:52:27;;;;;;;55.00;23.40;;;;;;;3.00;100.00;99657.75;5044087;28;20037;-63
2021/11/22 04:54:53;;;;;;;52.58;24.38;;;;;;;2.99;100.00;99656.09;5044426;28;20033;-64
2021/11/22 04:57:18;;;;;;;58.28;24.08;;;;;;;2.98;100.00;99654.47;5051552;28;20487;-63
2021/11/22 04:59:44;;;;;;;52.30;24.88;;;;;;;2.97;100.00;99650.16;5044717;28;20041;-63
2021/11/22 05:02:10;;;;;;;56.45;23.90;;;;;;;2.97;100.00;99658.09;5043812;28;20044;-63
2021/11/22 05:04:36;;;;;;;53.42;24.60;;;;;;;2.97;100.00;99658.09;5043473;28;20399;-65
2021/11/22 05:07:02;;;;;;;56.83;23.15;;;;;;;2.94;100.00;99666.41;5043689;28;20047;-62
2021/11/22 05:09:28;;;;;;;55.78;23.45;;;;;;;2.89;100.00;99682.03;5044219;28;20039;-62
2021/11/22 05:11:54;;;;;;;49.50;23.75;;;;;;;2.99;100.00;99687.88;5044348;28;20136;-64
2021/11/22 05:14:19;;;;;;;59.75;23.38;;;;;;;2.92;100.00;99682.50;5043375;28;20111;-62
2021/11/22 05:16:45;;;;;;;49.28;22.55;;;;;;;2.98;100.00;99684.41;5043098;28;20044;-64
2021/11/22 05:19:11;;;;;;;44.88;22.30;;;;;;;3.06;100.00;99687.97;5043803;28;20330;-63
2021/11/22 05:21:37;;;;;;;58.75;24.42;;;;;;;2.98;100.00;99691.53;5039429;28;20041;-63
2021/11/22 05:24:03;;;;;;;47.33;23.73;;;;;;;3.10;100.00;99697.22;5036894;28;20043;-64
2021/11/22 05:26:31;;;;;;;51.05;22.33;;;;;;;3.14;100.00;99699.28;5042466;28;20401;-64
2021/11/22 05:28:58;;;;;;;54.20;25.33;;;;;;;3.02;100.00;99698.09;5046476;28;20032;-62
2021/11/22 05:31:24;;;;;;;40.83;22.17;;;;;;;3.01;100.00;99699.13;5024504;28;20171;-62
2021/11/22 05:33:50;;;;;;;50.08;23.90;;;;;;;3.00;100.00;99708.06;5043701;28;20028;-63
2021/11/22 05:36:16;;;;;;;55.03;24.65;;;;;;;3.08;100.00;99707.16;5027993;28;20736;-63
2021/11/22 05:39:12;;;;;;;60.15;24.77;;;;;;;3.12;100.00;99711.94;5037105;28;20025;-63
2021/11/22 05:41:38;;;;;;;61.80;24.35;;;;;;;3.01;100.00;99715.00;5040805;28;20048;-62
2021/11/22 05:44:04;;;;;;;52.95;24.35;;;;;;;3.10;100.00;99716.56;5042673;28;20025;-63
2021/11/22 05:46:29;;;;;;;59.65;26.02;;;;;;;3.05;100.00;99726.06;5042205;28;20517;-63
2021/11/22 05:48:55;;;;;;;55.95;25.17;;;;;;;3.09;100.00;99722.84;5042239;28;20032;-63
2021/11/22 05:51:20;;;;;;;49.42;22.52;;;;;;;3.08;100.00;99723.88;5041519;28;20154;-64
2021/11/22 05:53:48;;;;;;;61.95;24.10;;;;;;;3.05;100.00;99734.03;5030675;28;20041;-63
2021/11/22 05:56:15;;;;;;;49.25;22.52;;;;;;;3.00;100.00;99737.22;5040682;28;20041;-63
2021/11/22 05:58:41;;;;;;;45.90;22.60;;;;;;;3.12;100.00;99749.00;5042730;28;20040;-63
2021/11/22 06:01:06;;;;;;;42.63;22.40;;;;;;;3.13;100.00;99749.81;5036599;28;20037;-63
2021/11/22 06:03:32;;;;;;;52.85;23.90;;;;;;;3.27;100.00;99758.75;5040714;28;20519;-63
2021/11/22 06:05:58;;;;;;;41.92;22.13;;;;;;;3.27;100.00;99751.66;5042168;28;20042;-63
2021/11/22 06:08:23;;;;;;;44.90;21.13;;;;;;;3.22;100.00;99756.66;5042890;28;20032;-63
2021/11/22 06:10:49;;;;;;;40.90;18.38;;;;;;;3.21;100.00;99757.69;5042800;28;20046;-63
2021/11/22 06:13:18;;;;;;;45.88;20.33;;;;;;;3.22;100.00;99768.09;5040420;28;20039;-63
2021/11/22 06:15:44;;;;;;;42.05;20.80;;;;;;;3.26;100.00;99765.09;5038175;28;20236;-63
2021/11/22 06:18:10;;;;;;;44.33;22.30;;;;;;;3.23;100.00;99767.09;5041495;28;20225;-63
2021/11/22 06:20:36;;;;;;;43.72;21.10;;;;;;;3.22;100.00;99760.16;5041550;28;20044;-63
2021/11/22 06:23:01;;;;;;;44.15;21.48;;;;;;;3.24;100.00;99771.41;5041254;28;20110;-63
2021/11/22 06:25:27;;;;;;;41.08;21.10;;;;;;;3.26;100.00;99773.03;5042355;28;20056;-63
2021/11/22 06:27:53;;;;;;;40.15;20.27;;;;;;;3.34;100.00;99778.22;5047844;28;20025;-63
2021/11/22 06:30:19;;;;;;;32.90;16.95;;;;;;;3.37;100.00;99775.22;5042209;28;20061;-63
2021/11/22 06:32:46;;;;;;;33.97;18.50;;;;;;;3.40;100.00;99777.53;5037920;28;20340;-63
2021/11/22 06:35:11;;;;;;;36.28;17.15;;;;;;;3.33;100.00;99779.25;5039134;28;20052;-63
2021/11/22 06:37:37;;;;;;;34.63;19.10;;;;;;;3.37;100.00;99784.00;5040321;28;20372;-63
2021/11/22 06:40:10;;;;;;;31.50;18.52;;;;;;;3.32;100.00;99782.88;5041440;28;20060;-63
2021/11/22 06:42:36;;;;;;;33.67;17.63;;;;;;;3.29;100.00;99793.84;5041533;28;20047;-64
2021/11/22 06:45:03;;;;;;;33.90;18.00;;;;;;;3.33;100.00;99800.44;5038622;28;20025;-63
2021/11/22 06:47:29;;;;;;;34.40;18.48;;;;;;;3.29;100.00;99807.91;5041249;28;20174;-62
2021/11/22 06:49:54;;;;;;;35.15;18.13;;;;;;;3.29;100.00;99809.75;5038456;28;20061;-62
2021/11/22 06:52:21;;;;;;;32.85;17.23;;;;;;;3.24;100.00;99820.88;5041714;28;20041;-62
2021/11/22 06:54:50;;;;;;;34.85;17.40;;;;;;;3.28;100.00;99829.31;5040855;28;20313;-62
2021/11/22 06:57:16;;;;;;;27.65;16.05;;;;;;;3.31;100.00;99834.25;5041998;28;20447;-62
2021/11/22 06:59:42;;;;;;;31.65;19.17;;;;;;;3.16;100.00;99842.16;5041154;28;20164;-62
2021/11/22 07:02:16;;;;;;;31.50;17.95;;;;;;;3.18;100.00;99838.34;5040931;28;20048;-62
2021/11/22 07:04:42;;;;;;;32.08;16.75;;;;;;;3.23;100.00;99851.88;5038714;28;20045;-63
2021/11/22 07:07:07;;;;;;;28.40;15.50;;;;;;;3.24;100.00;99856.19;5041112;28;20757;-64
2021/11/22 07:09:33;;;;;;;31.67;17.50;;;;;;;3.34;100.00;99861.19;5041096;28;20513;-62
2021/11/22 07:11:59;;;;;;;28.80;16.05;;;;;;;3.32;99.93;99862.38;5041682;28;20042;-63
2021/11/22 07:14:24;;;;;;;32.90;17.10;;;;;;;3.26;100.00;99863.09;5039652;28;20056;-63
2021/11/22 07:16:52;;;;;;;39.28;18.77;;;;;;;3.24;100.00;99861.47;5036076;28;20981;-63
2021/11/22 07:19:17;;;;;;;29.88;15.80;;;;;;;3.37;99.48;99871.47;5040366;28;20111;-63
2021/11/22 07:21:43;;;;;;;32.65;16.35;;;;;;;3.32;99.44;99878.28;5041236;28;20041;-63
2021/11/22 07:24:08;;;;;;;32.33;17.52;;;;;;;3.19;99.59;99879.69;5041598;28;20120;-63
2021/11/22 07:26:34;;;;;;;30.70;16.33;;;;;;;3.23;99.37;99881.00;5039824;28;20444;-63
2021/11/22 07:29:01;;;;;;;31.27;16.60;;;;;;;3.29;99.46;99876.00;5041042;28;20053;-63
2021/11/22 07:31:26;;;;;;;33.45;17.13;;;;;;;3.39;99.30;99882.66;5040714;28;20056;-64
2021/11/22 07:33:52;;;;;;;25.90;14.30;;;;;;;3.36;98.78;99906.06;5041016;28;20121;-64
2021/11/22 07:36:17;;;;;;;32.45;17.00;;;;;;;3.32;98.98;99904.78;5041993;28;20124;-64
2021/11/22 07:38:43;;;;;;;26.48;14.93;;;;;;;3.36;99.04;99906.88;5041322;28;20124;-64
2021/11/22 07:41:08;;;;;;;28.95;14.57;;;;;;;3.40;98.43;99912.66;5042558;28;20105;-63
2021/11/22 07:43:34;;;;;;;29.20;15.85;;;;;;;3.41;98.47;99916.97;5045590;28;20040;-64
2021/11/22 07:45:59;;;;;;;30.23;16.30;;;;;;;3.48;98.48;99914.44;5036606;28;20060;-64
2021/11/22 07:48:25;;;;;;;25.77;12.15;;;;;;;3.56;98.11;99912.50;5045186;28;20455;-64
2021/11/22 07:50:51;;;;;;;27.20;15.00;;;;;;;3.58;97.38;99923.75;5044193;28;20053;-63
2021/11/22 07:53:16;;;;;;;26.23;15.55;;;;;;;3.56;97.02;99923.09;5043376;28;20021;-64
2021/11/22 07:55:44;;;;;;;26.35;14.40;;;;;;;3.52;97.72;99931.59;5035635;28;20063;-64
2021/11/22 07:58:10;;;;;;;25.48;14.48;;;;;;;3.59;98.17;99932.53;5035309;28;20032;-63
2021/11/22 08:00:35;;;;;;;22.50;13.60;;;;;;;3.73;98.41;99936.22;5038662;28;20741;-64
2021/11/22 08:03:01;;;;;;;23.95;13.32;;;;;;;3.67;98.05;99938.59;5033021;28;20036;-64
2021/11/22 08:05:28;;;;;;;32.25;14.65;;;;;;;3.71;97.26;99940.88;5037521;28;20076;-63
2021/11/22 08:07:55;;;;;;;18.42;10.27;;;;;;;3.75;96.29;99947.47;5042322;28;20033;-63
2021/11/22 08:12:53;;;;;;;20.63;11.02;;;;;;;3.79;95.18;99954.06;5034249;28;20411;-63
2021/11/22 08:15:20;;;;;;;20.92;11.40;;;;;;;3.72;96.16;99961.06;5041728;28;20075;-64
2021/11/22 08:17:45;;;;;;;18.67;10.85;;;;;;;3.71;94.97;99968.22;5035526;28;20082;-64
2021/11/22 08:20:11;;;;;;;21.38;12.68;;;;;;;3.70;95.07;99965.75;5034765;28;20131;-63
2021/11/22 08:22:37;;;;;;;18.10;11.20;;;;;;;3.68;95.02;99969.41;5035632;28;20033;-63
2021/11/22 08:25:03;;;;;;;18.75;11.35;;;;;;;3.72;95.07;99987.59;5043862;28;20140;-63
2021/11/22 08:27:29;;;;;;;20.83;10.93;;;;;;;3.80;94.24;99987.53;5040252;28;20040;-63
2021/11/22 08:29:56;;;;;;;18.23;10.95;;;;;;;3.76;93.44;99986.22;5044071;28;20025;-64
2021/11/22 08:32:22;;;;;;;24.48;11.63;;;;;;;3.78;93.65;99997.50;5041838;28;20074;-63
2021/11/22 08:34:47;;;;;;;19.40;11.02;;;;;;;3.80;93.44;99998.97;5045020;28;20033;-64
2021/11/22 08:37:13;;;;;;;22.30;10.38;;;;;;;3.82;93.28;100006.72;5043557;28;20033;-64
2021/11/22 08:39:38;;;;;;;21.20;11.05;;;;;;;3.88;93.71;100003.38;5041577;28;20072;-63
2021/11/22 08:42:04;;;;;;;20.27;11.20;;;;;;;3.85;94.24;100007.19;5034672;28;20095;-63
2021/11/22 08:44:30;;;;;;;18.38;10.77;;;;;;;3.89;94.10;100005.00;5034824;28;20116;-63
2021/11/22 08:46:56;;;;;;;24.75;10.25;;;;;;;3.88;92.86;100011.31;5035630;28;20041;-63
2021/11/22 08:49:22;;;;;;;18.63;11.35;;;;;;;3.73;93.22;100021.06;5035824;28;20424;-63
2021/11/22 08:51:48;;;;;;;21.08;10.77;;;;;;;3.76;93.41;100016.22;5024895;28;20057;-64
2021/11/22 08:54:13;;;;;;;19.27;10.13;;;;;;;3.77;92.78;100031.16;5040407;28;20415;-64
2021/11/22 08:56:39;;;;;;;17.20;10.23;;;;;;;3.88;93.07;100027.22;5033530;28;20220;-63
2021/11/22 08:59:05;;;;;;;19.88;10.52;;;;;;;3.95;92.96;100022.88;5041962;28;20432;-63
2021/11/22 09:01:31;;;;;;;21.83;11.55;;;;;;;3.87;93.28;100036.22;5043596;28;20060;-64
2021/11/22 09:03:57;;;;;;;19.00;11.75;;;;;;;3.84;94.08;100037.38;5038467;28;20031;-63
2021/11/22 09:06:22;;;;;;;18.55;10.75;;;;;;;3.82;93.09;100042.03;5037644;28;20052;-63
2021/11/22 09:08:48;;;;;;;16.63;10.65;;;;;;;3.84;93.64;100052.44;5043896;28;20043;-64
2021/11/22 09:11:14;;;;;;;15.05;9.82;;;;;;;3.97;93.57;100057.16;5040577;28;20146;-64
2021/11/22 09:13:40;;;;;;;16.60;10.02;;;;;;;4.01;93.63;100058.44;5034667;28;20522;-63
2021/11/22 09:16:06;;;;;;;15.40;9.95;;;;;;;4.20;92.74;100065.09;5032615;28;20054;-64
2021/11/22 09:18:31;;;;;;;22.95;10.35;;;;;;;4.15;92.01;100062.97;5031720;28;20059;-63
2021/11/22 09:20:57;;;;;;;17.33;9.43;;;;;;;4.11;92.27;100069.63;5038706;28;20594;-63
2021/11/22 09:23:24;;;;;;;21.25;9.93;;;;;;;4.14;91.76;100077.22;5036939;28;20056;-63
2021/11/22 09:25:51;;;;;;;15.25;9.73;;;;;;;4.18;92.37;100083.84;5036583;28;20490;-63
2021/11/22 09:28:17;;;;;;;17.13;9.60;;;;;;;4.14;92.05;100084.38;5042525;28;20025;-63
2021/11/22 09:30:42;;;;;;;21.50;9.43;;;;;;;4.20;93.01;100078.34;5036328;28;20033;-63
2021/11/22 09:33:10;;;;;;;20.13;10.57;;;;;;;4.24;92.50;100085.78;5039532;28;20589;-64
2021/11/22 09:35:36;;;;;;;23.02;10.10;;;;;;;4.24;92.03;100093.75;5034367;28;20045;-63
2021/11/22 09:38:02;;;;;;;20.95;10.57;;;;;;;4.27;92.34;100097.88;5041394;28;20029;-63
2021/11/22 09:40:28;;;;;;;16.50;10.10;;;;;;;4.19;91.51;100095.25;5040253;28;20052;-63
2021/11/22 09:42:55;;;;;;;19.52;8.63;;;;;;;4.27;91.07;100105.81;5013748;28;20295;-63
2021/11/22 09:45:21;;;;;;;13.02;8.27;;;;;;;4.41;90.13;100107.66;5034613;28;20029;-64
2021/11/22 09:47:46;;;;;;;16.13;9.82;;;;;;;4.44;90.96;100102.00;5024540;28;20120;-64
2021/11/22 09:50:12;;;;;;;14.85;8.63;;;;;;;4.50;90.47;100105.75;5041969;28;20375;-64
2021/11/22 09:52:38;;;;;;;14.18;8.48;;;;;;;4.61;90.85;100105.31;5035347;28;20047;-64
2021/11/22 09:55:04;;;;;;;15.02;7.80;;;;;;;4.66;90.31;100110.06;5036260;28;20112;-63
2021/11/22 09:57:29;;;;;;;19.77;8.05;;;;;;;4.57;89.25;100109.34;5024453;28;20555;-64
2021/11/22 09:59:55;;;;;;;17.42;8.75;;;;;;;4.64;90.12;100106.75;5038921;28;20049;-64
2021/11/22 10:02:28;;;;;;;13.95;7.65;;;;;;;4.63;88.64;100110.44;5034037;28;20045;-63
2021/11/22 10:04:53;;;;;;;13.30;6.85;;;;;;;4.59;88.83;100112.63;5018115;28;20053;-64
2021/11/22 10:07:21;;;;;;;13.55;7.53;;;;;;;4.64;88.05;100106.75;5034731;28;20040;-64
2021/11/22 10:09:47;;;;;;;11.57;6.88;;;;;;;4.71;88.93;100102.38;5043225;28;20384;-64
2021/11/22 10:12:24;;;;;;;14.65;6.80;;;;;;;4.72;87.58;100098.72;5031734;28;20247;-63
2021/11/22 10:14:53;;;;;;;10.75;6.30;;;;;;;4.72;86.87;100099.56;5035303;28;20029;-64
2021/11/22 10:17:33;;;;;;;9.93;6.68;;;;;;;4.74;88.06;100105.50;5035794;28;20126;-63
2021/11/22 10:20:11;;;;;;;11.00;6.03;;;;;;;4.77;86.40;100109.63;5040748;28;20033;-63
2021/11/22 10:22:49;;;;;;;11.10;6.05;;;;;;;4.89;86.28;100110.81;5026596;28;20503;-63
2021/11/22 10:25:41;;;;;;;15.40;6.82;;;;;;;4.87;86.54;100112.84;5030552;28;20493;-63
2021/11/22 10:28:18;;;;;;;12.63;7.20;;;;;;;4.95;87.51;100120.69;5037834;28;20044;-64
2021/11/22 10:31:37;;;;;;;13.07;7.00;;;;;;;4.93;86.18;100122.72;5023966;28;20076;-64
2021/11/22 10:34:03;;;;;;;10.70;5.75;;;;;;;4.89;86.23;100109.97;5030325;28;20037;-63
2021/11/22 10:36:29;;;;;;;23.42;7.38;;;;;;;4.91;86.58;100119.41;5032392;28;20781;-63
2021/11/22 10:38:59;;;;;;;12.88;6.72;;;;;;;4.93;86.30;100117.41;5035257;28;20391;-64
2021/11/22 10:41:39;;;;;;;11.35;7.20;;;;;;;4.89;85.61;100116.13;5031852;28;20045;-63
2021/11/22 10:44:04;;;;;;;11.80;6.90;;;;;;;4.97;85.60;100120.53;5035580;28;20017;-63
2021/11/22 10:46:40;;;;;;;11.82;6.43;;;;;;;4.88;85.60;100125.09;5039156;28;20055;-63
2021/11/22 10:49:28;;;;;;;12.82;6.93;;;;;;;4.96;86.65;100119.69;5035076;28;20026;-63
2021/11/22 10:52:16;;;;;;;11.73;7.60;;;;;;;5.08;86.17;100116.56;5033546;28;20560;-63
2021/11/22 10:55:12;;;;;;;13.68;7.80;;;;;;;5.05;86.82;100114.28;5031641;28;20444;-64
2021/11/22 10:57:47;;;;;;;12.88;7.00;;;;;;;5.09;86.38;100116.41;5033564;28;20403;-63
2021/11/22 11:00:23;;;;;;;12.52;6.40;;;;;;;5.16;84.96;100119.13;5036832;28;20021;-63
2021/11/22 11:02:50;;;;;;;10.40;6.90;;;;;;;5.01;85.36;100119.13;5052731;28;20039;-63
2021/11/22 11:05:25;;;;;;;11.20;6.40;;;;;;;5.16;85.82;100103.19;5057708;28;20044;-63
2021/11/22 11:08:10;;;;;;;9.75;5.50;;;;;;;5.21;84.52;100116.72;5054266;28;20143;-63
2021/11/22 11:10:36;;;;;;;10.38;5.97;;;;;;;5.12;84.56;100117.88;5058863;28;20513;-63
2021/11/22 11:13:03;;;;;;;8.95;5.70;;;;;;;5.24;84.84;100112.88;5067491;28;20294;-64
2021/11/22 11:15:29;;;;;;;9.68;6.38;;;;;;;5.13;84.35;100116.84;5061020;28;20037;-63
2021/11/22 11:17:55;;;;;;;10.10;5.07;;;;;;;5.24;83.81;100116.38;5058596;28;20402;-63
2021/11/22 11:20:21;;;;;;;9.63;5.60;;;;;;;5.12;83.78;100124.00;5057199;28;20144;-63